sensor_id;sensor_type;location;lat;lon;timestamp;P1;durP1;ratioP1;P2;durP2;ratioP2
35530;SDS011;21637;53.352;-6.356;2024-02-15T00:00:09;1.80;;;1.20;;
35530;SDS011;21637;53.352;-6.356;2024-02-15T00:02:36;3.35;;;0.90;;
35530;SDS011;21637;53.352;-6.356;2024-02-15T00:05:02;2.42;;;1.60;;
35530;SDS011;21637;53.352;-6.356;2024-02-15T00:07:28;1.73;;;1.13;;
35530;SDS011;21637;53.352;-6.356;2024-02-15T00:09:53;2.05;;;1.30;;
35530;SDS011;21637;53.352;-6.356;2024-02-15T00:12:19;1.75;;;1.30;;
35530;SDS011;21637;53.352;-6.356;2024-02-15T00:14:45;3.88;;;1.42;;
35530;SDS011;21637;53.352;-6.356;2024-02-15T00:17:11;1.23;;;1.10;;
35530;SDS011;21637;53.352;-6.356;2024-02-15T00:19:37;3.60;;;1.17;;
35530;SDS011;21637;53.352;-6.356;2024-02-15T00:22:05;2.15;;;1.00;;
35530;SDS011;21637;53.352;-6.356;2024-02-15T00:24:31;0.98;;;0.80;;
35530;SDS011;21637;53.352;-6.356;2024-02-15T00:26:57;3.25;;;1.55;;
35530;SDS011;21637;53.352;-6.356;2024-02-15T00:29:22;1.98;;;0.90;;
35530;SDS011;21637;53.352;-6.356;2024-02-15T00:31:49;1.58;;;1.02;;
35530;SDS011;21637;53.352;-6.356;2024-02-15T00:34:15;0.80;;;0.80;;
35530;SDS011;21637;53.352;-6.356;2024-02-15T00:36:42;1.98;;;0.70;;
35530;SDS011;21637;53.352;-6.356;2024-02-15T00:39:09;2.40;;;0.90;;
35530;SDS011;21637;53.352;-6.356;2024-02-15T00:41:37;1.38;;;0.80;;
35530;SDS011;21637;53.352;-6.356;2024-02-15T00:44:06;2.63;;;0.80;;
35530;SDS011;21637;53.352;-6.356;2024-02-15T00:46:33;2.05;;;0.90;;
35530;SDS011;21637;53.352;-6.356;2024-02-15T00:49:00;3.72;;;0.85;;
35530;SDS011;21637;53.352;-6.356;2024-02-15T00:51:25;1.52;;;0.85;;
35530;SDS011;21637;53.352;-6.356;2024-02-15T00:53:51;1.23;;;1.02;;
35530;SDS011;21637;53.352;-6.356;2024-02-15T00:56:17;1.00;;;0.77;;
35530;SDS011;21637;53.352;-6.356;2024-02-15T00:58:42;2.90;;;0.93;;
35530;SDS011;21637;53.352;-6.356;2024-02-15T01:01:08;1.52;;;0.70;;
35530;SDS011;21637;53.352;-6.356;2024-02-15T01:03:35;1.60;;;0.63;;
35530;SDS011;21637;53.352;-6.356;2024-02-15T01:06:01;2.08;;;0.80;;
35530;SDS011;21637;53.352;-6.356;2024-02-15T01:08:27;1.80;;;0.80;;
35530;SDS011;21637;53.352;-6.356;2024-02-15T01:10:53;1.60;;;0.80;;
35530;SDS011;21637;53.352;-6.356;2024-02-15T01:13:19;0.50;;;0.50;;
35530;SDS011;21637;53.352;-6.356;2024-02-15T01:15:45;3.63;;;1.02;;
35530;SDS011;21637;53.352;-6.356;2024-02-15T01:18:11;3.08;;;0.90;;
35530;SDS011;21637;53.352;-6.356;2024-02-15T01:20:37;2.60;;;0.80;;
35530;SDS011;21637;53.352;-6.356;2024-02-15T01:23:03;3.05;;;1.15;;
35530;SDS011;21637;53.352;-6.356;2024-02-15T01:25:30;3.90;;;1.40;;
35530;SDS011;21637;53.352;-6.356;2024-02-15T01:27:55;3.30;;;1.45;;
35530;SDS011;21637;53.352;-6.356;2024-02-15T01:30:21;8.43;;;2.47;;
35530;SDS011;21637;53.352;-6.356;2024-02-15T01:32:47;5.20;;;1.90;;
35530;SDS011;21637;53.352;-6.356;2024-02-15T01:35:13;4.53;;;1.95;;
35530;SDS011;21637;53.352;-6.356;2024-02-15T01:37:39;8.82;;;2.13;;
35530;SDS011;21637;53.352;-6.356;2024-02-15T01:40:05;4.57;;;1.70;;
35530;SDS011;21637;53.352;-6.356;2024-02-15T01:42:31;7.82;;;1.80;;
35530;SDS011;21637;53.352;-6.356;2024-02-15T01:44:57;3.67;;;1.63;;
35530;SDS011;21637;53.352;-6.356;2024-02-15T01:47:23;8.75;;;1.70;;
35530;SDS011;21637;53.352;-6.356;2024-02-15T01:49:49;7.18;;;1.80;;
35530;SDS011;21637;53.352;-6.356;2024-02-15T01:52:15;9.55;;;2.38;;
35530;SDS011;21637;53.352;-6.356;2024-02-15T01:54:42;4.82;;;1.50;;
35530;SDS011;21637;53.352;-6.356;2024-02-15T01:57:08;6.07;;;1.70;;
35530;SDS011;21637;53.352;-6.356;2024-02-15T01:59:34;6.30;;;1.70;;
35530;SDS011;21637;53.352;-6.356;2024-02-15T02:02:01;5.60;;;1.70;;
35530;SDS011;21637;53.352;-6.356;2024-02-15T02:04:29;5.50;;;1.90;;
35530;SDS011;21637;53.352;-6.356;2024-02-15T02:06:56;9.40;;;2.25;;
35530;SDS011;21637;53.352;-6.356;2024-02-15T02:09:24;8.50;;;2.65;;
35530;SDS011;21637;53.352;-6.356;2024-02-15T02:11:50;7.43;;;2.65;;
35530;SDS011;21637;53.352;-6.356;2024-02-15T02:14:16;6.78;;;2.50;;
35530;SDS011;21637;53.352;-6.356;2024-02-15T02:16:45;9.80;;;2.20;;
35530;SDS011;21637;53.352;-6.356;2024-02-15T02:19:11;5.60;;;1.90;;
35530;SDS011;21637;53.352;-6.356;2024-02-15T02:21:37;4.13;;;1.80;;
35530;SDS011;21637;53.352;-6.356;2024-02-15T02:24:06;9.13;;;2.88;;
35530;SDS011;21637;53.352;-6.356;2024-02-15T02:26:39;7.53;;;1.92;;
35530;SDS011;21637;53.352;-6.356;2024-02-15T02:29:05;10.07;;;2.65;;
35530;SDS011;21637;53.352;-6.356;2024-02-15T02:31:35;4.55;;;1.40;;
35530;SDS011;21637;53.352;-6.356;2024-02-15T02:34:01;4.88;;;1.48;;
35530;SDS011;21637;53.352;-6.356;2024-02-15T02:36:27;7.30;;;1.60;;
35530;SDS011;21637;53.352;-6.356;2024-02-15T02:38:54;3.22;;;1.73;;
35530;SDS011;21637;53.352;-6.356;2024-02-15T02:41:20;7.03;;;1.70;;
35530;SDS011;21637;53.352;-6.356;2024-02-15T02:43:46;3.33;;;1.73;;
35530;SDS011;21637;53.352;-6.356;2024-02-15T02:46:12;3.22;;;1.50;;
35530;SDS011;21637;53.352;-6.356;2024-02-15T02:48:38;3.60;;;1.65;;
35530;SDS011;21637;53.352;-6.356;2024-02-15T02:51:06;2.85;;;0.98;;
35530;SDS011;21637;53.352;-6.356;2024-02-15T02:53:32;1.48;;;0.65;;
35530;SDS011;21637;53.352;-6.356;2024-02-15T02:55:58;1.90;;;0.80;;
35530;SDS011;21637;53.352;-6.356;2024-02-15T02:58:24;2.75;;;0.80;;
35530;SDS011;21637;53.352;-6.356;2024-02-15T03:00:50;2.33;;;0.90;;
35530;SDS011;21637;53.352;-6.356;2024-02-15T03:03:16;2.10;;;0.70;;
35530;SDS011;21637;53.352;-6.356;2024-02-15T03:05:44;3.22;;;0.80;;
35530;SDS011;21637;53.352;-6.356;2024-02-15T03:08:11;2.67;;;0.65;;
35530;SDS011;21637;53.352;-6.356;2024-02-15T03:10:42;1.30;;;0.70;;
35530;SDS011;21637;53.352;-6.356;2024-02-15T03:13:08;1.35;;;0.50;;
35530;SDS011;21637;53.352;-6.356;2024-02-15T03:15:34;2.47;;;0.70;;
35530;SDS011;21637;53.352;-6.356;2024-02-15T03:18:00;1.48;;;0.63;;
35530;SDS011;21637;53.352;-6.356;2024-02-15T03:20:31;1.80;;;0.68;;
35530;SDS011;21637;53.352;-6.356;2024-02-15T03:22:59;2.65;;;0.60;;
35530;SDS011;21637;53.352;-6.356;2024-02-15T03:25:26;0.30;;;0.30;;
35530;SDS011;21637;53.352;-6.356;2024-02-15T03:27:57;2.47;;;0.65;;
35530;SDS011;21637;53.352;-6.356;2024-02-15T03:30:26;1.60;;;0.90;;
35530;SDS011;21637;53.352;-6.356;2024-02-15T03:32:56;1.85;;;0.60;;
35530;SDS011;21637;53.352;-6.356;2024-02-15T03:35:23;3.10;;;0.80;;
35530;SDS011;21637;53.352;-6.356;2024-02-15T03:37:52;1.95;;;0.80;;
35530;SDS011;21637;53.352;-6.356;2024-02-15T03:40:18;2.60;;;0.80;;
35530;SDS011;21637;53.352;-6.356;2024-02-15T03:42:45;1.08;;;0.65;;
35530;SDS011;21637;53.352;-6.356;2024-02-15T03:45:17;2.60;;;0.85;;
35530;SDS011;21637;53.352;-6.356;2024-02-15T03:47:43;2.47;;;0.93;;
35530;SDS011;21637;53.352;-6.356;2024-02-15T03:50:09;0.88;;;0.68;;
35530;SDS011;21637;53.352;-6.356;2024-02-15T03:52:35;4.63;;;0.90;;
35530;SDS011;21637;53.352;-6.356;2024-02-15T03:55:01;0.75;;;0.60;;
35530;SDS011;21637;53.352;-6.356;2024-02-15T03:57:27;0.60;;;0.60;;
35530;SDS011;21637;53.352;-6.356;2024-02-15T03:59:54;1.13;;;0.93;;
35530;SDS011;21637;53.352;-6.356;2024-02-15T04:02:22;2.67;;;1.20;;
35530;SDS011;21637;53.352;-6.356;2024-02-15T04:04:52;2.92;;;1.10;;
35530;SDS011;21637;53.352;-6.356;2024-02-15T04:07:20;2.85;;;1.20;;
35530;SDS011;21637;53.352;-6.356;2024-02-15T04:09:46;3.75;;;1.38;;
35530;SDS011;21637;53.352;-6.356;2024-02-15T04:12:12;4.30;;;1.40;;
35530;SDS011;21637;53.352;-6.356;2024-02-15T04:14:39;1.45;;;1.20;;
35530;SDS011;21637;53.352;-6.356;2024-02-15T04:17:06;3.88;;;1.27;;
35530;SDS011;21637;53.352;-6.356;2024-02-15T04:19:32;4.95;;;1.58;;
35530;SDS011;21637;53.352;-6.356;2024-02-15T04:21:59;3.67;;;1.40;;
35530;SDS011;21637;53.352;-6.356;2024-02-15T04:24:28;1.70;;;1.60;;
35530;SDS011;21637;53.352;-6.356;2024-02-15T04:26:54;3.05;;;1.70;;
35530;SDS011;21637;53.352;-6.356;2024-02-15T04:29:20;3.03;;;1.70;;
35530;SDS011;21637;53.352;-6.356;2024-02-15T04:31:46;5.32;;;1.95;;
35530;SDS011;21637;53.352;-6.356;2024-02-15T04:34:15;3.35;;;1.80;;
35530;SDS011;21637;53.352;-6.356;2024-02-15T04:36:43;4.30;;;1.80;;
35530;SDS011;21637;53.352;-6.356;2024-02-15T04:39:14;3.80;;;2.13;;
35530;SDS011;21637;53.352;-6.356;2024-02-15T04:41:49;2.60;;;1.20;;
35530;SDS011;21637;53.352;-6.356;2024-02-15T04:44:18;2.45;;;1.00;;
35530;SDS011;21637;53.352;-6.356;2024-02-15T04:46:46;1.88;;;1.23;;
35530;SDS011;21637;53.352;-6.356;2024-02-15T04:49:14;3.75;;;1.48;;
35530;SDS011;21637;53.352;-6.356;2024-02-15T04:51:40;1.67;;;1.08;;
35530;SDS011;21637;53.352;-6.356;2024-02-15T04:54:09;3.70;;;1.48;;
35530;SDS011;21637;53.352;-6.356;2024-02-15T04:56:38;1.48;;;1.38;;
35530;SDS011;21637;53.352;-6.356;2024-02-15T04:59:05;1.80;;;1.65;;
35530;SDS011;21637;53.352;-6.356;2024-02-15T05:01:34;2.80;;;1.63;;
35530;SDS011;21637;53.352;-6.356;2024-02-15T05:04:00;2.97;;;1.50;;
35530;SDS011;21637;53.352;-6.356;2024-02-15T05:06:31;2.13;;;1.55;;
35530;SDS011;21637;53.352;-6.356;2024-02-15T05:08:57;5.97;;;2.33;;
35530;SDS011;21637;53.352;-6.356;2024-02-15T05:11:25;5.55;;;1.90;;
35530;SDS011;21637;53.352;-6.356;2024-02-15T05:13:51;4.18;;;2.42;;
35530;SDS011;21637;53.352;-6.356;2024-02-15T05:16:17;5.22;;;2.55;;
35530;SDS011;21637;53.352;-6.356;2024-02-15T05:18:44;6.20;;;2.60;;
35530;SDS011;21637;53.352;-6.356;2024-02-15T05:21:11;5.18;;;2.50;;
35530;SDS011;21637;53.352;-6.356;2024-02-15T05:23:38;10.13;;;3.00;;
35530;SDS011;21637;53.352;-6.356;2024-02-15T05:26:08;10.35;;;2.88;;
35530;SDS011;21637;53.352;-6.356;2024-02-15T05:28:37;7.90;;;2.95;;
35530;SDS011;21637;53.352;-6.356;2024-02-15T05:31:17;8.82;;;3.13;;
35530;SDS011;21637;53.352;-6.356;2024-02-15T05:33:48;7.75;;;3.00;;
35530;SDS011;21637;53.352;-6.356;2024-02-15T05:36:15;7.70;;;2.95;;
35530;SDS011;21637;53.352;-6.356;2024-02-15T05:38:46;10.18;;;3.58;;
35530;SDS011;21637;53.352;-6.356;2024-02-15T05:41:19;5.68;;;3.08;;
35530;SDS011;21637;53.352;-6.356;2024-02-15T05:43:48;6.68;;;3.13;;
35530;SDS011;21637;53.352;-6.356;2024-02-15T05:46:14;8.45;;;3.95;;
35530;SDS011;21637;53.352;-6.356;2024-02-15T05:48:40;9.05;;;4.50;;
35530;SDS011;21637;53.352;-6.356;2024-02-15T05:51:07;13.50;;;4.68;;
35530;SDS011;21637;53.352;-6.356;2024-02-15T05:53:33;7.60;;;3.97;;
35530;SDS011;21637;53.352;-6.356;2024-02-15T05:56:01;9.32;;;4.20;;
35530;SDS011;21637;53.352;-6.356;2024-02-15T05:58:29;9.55;;;4.95;;
35530;SDS011;21637;53.352;-6.356;2024-02-15T06:00:56;9.40;;;4.00;;
35530;SDS011;21637;53.352;-6.356;2024-02-15T06:03:26;11.63;;;5.35;;
35530;SDS011;21637;53.352;-6.356;2024-02-15T06:05:57;57.40;;;8.10;;
35530;SDS011;21637;53.352;-6.356;2024-02-15T06:08:26;9.98;;;4.30;;
35530;SDS011;21637;53.352;-6.356;2024-02-15T06:10:55;10.55;;;4.78;;
35530;SDS011;21637;53.352;-6.356;2024-02-15T06:13:22;10.05;;;4.88;;
35530;SDS011;21637;53.352;-6.356;2024-02-15T06:15:52;13.30;;;4.95;;
35530;SDS011;21637;53.352;-6.356;2024-02-15T06:18:25;11.60;;;5.20;;
35530;SDS011;21637;53.352;-6.356;2024-02-15T06:20:56;10.43;;;5.20;;
35530;SDS011;21637;53.352;-6.356;2024-02-15T06:23:22;7.30;;;4.05;;
35530;SDS011;21637;53.352;-6.356;2024-02-15T06:25:50;11.48;;;4.88;;
35530;SDS011;21637;53.352;-6.356;2024-02-15T06:28:20;6.72;;;3.85;;
35530;SDS011;21637;53.352;-6.356;2024-02-15T06:31:04;8.88;;;4.30;;
35530;SDS011;21637;53.352;-6.356;2024-02-15T06:33:51;6.00;;;3.78;;
35530;SDS011;21637;53.352;-6.356;2024-02-15T06:36:39;8.45;;;3.83;;
35530;SDS011;21637;53.352;-6.356;2024-02-15T06:39:40;11.73;;;4.40;;
35530;SDS011;21637;53.352;-6.356;2024-02-15T06:42:09;2.10;;;1.20;;
35530;SDS011;21637;53.352;-6.356;2024-02-15T06:44:37;2.80;;;1.20;;
35530;SDS011;21637;53.352;-6.356;2024-02-15T06:47:06;5.05;;;1.15;;
35530;SDS011;21637;53.352;-6.356;2024-02-15T06:49:32;1.35;;;0.80;;
35530;SDS011;21637;53.352;-6.356;2024-02-15T06:51:58;1.95;;;0.90;;
35530;SDS011;21637;53.352;-6.356;2024-02-15T06:54:27;3.35;;;0.90;;
35530;SDS011;21637;53.352;-6.356;2024-02-15T06:56:53;1.90;;;1.00;;
35530;SDS011;21637;53.352;-6.356;2024-02-15T06:59:19;1.17;;;0.90;;
35530;SDS011;21637;53.352;-6.356;2024-02-15T07:01:47;1.58;;;0.82;;
35530;SDS011;21637;53.352;-6.356;2024-02-15T07:04:17;2.70;;;1.02;;
35530;SDS011;21637;53.352;-6.356;2024-02-15T07:06:44;0.95;;;0.75;;
35530;SDS011;21637;53.352;-6.356;2024-02-15T07:09:12;1.10;;;0.60;;
35530;SDS011;21637;53.352;-6.356;2024-02-15T07:11:40;1.05;;;0.40;;
35530;SDS011;21637;53.352;-6.356;2024-02-15T07:14:06;2.78;;;0.47;;
35530;SDS011;21637;53.352;-6.356;2024-02-15T07:16:34;1.45;;;0.50;;
35530;SDS011;21637;53.352;-6.356;2024-02-15T07:19:00;2.05;;;0.38;;
35530;SDS011;21637;53.352;-6.356;2024-02-15T07:21:26;0.55;;;0.40;;
35530;SDS011;21637;53.352;-6.356;2024-02-15T07:23:52;0.75;;;0.50;;
35530;SDS011;21637;53.352;-6.356;2024-02-15T07:26:19;2.10;;;0.30;;
35530;SDS011;21637;53.352;-6.356;2024-02-15T07:28:49;0.60;;;0.30;;
35530;SDS011;21637;53.352;-6.356;2024-02-15T07:31:27;0.82;;;0.20;;
35530;SDS011;21637;53.352;-6.356;2024-02-15T07:33:54;1.38;;;0.55;;
35530;SDS011;21637;53.352;-6.356;2024-02-15T07:36:20;1.10;;;0.30;;
35530;SDS011;21637;53.352;-6.356;2024-02-15T07:38:50;1.40;;;0.45;;
35530;SDS011;21637;53.352;-6.356;2024-02-15T07:41:17;0.47;;;0.30;;
35530;SDS011;21637;53.352;-6.356;2024-02-15T07:43:44;1.27;;;0.50;;
35530;SDS011;21637;53.352;-6.356;2024-02-15T07:46:12;2.78;;;0.40;;
35530;SDS011;21637;53.352;-6.356;2024-02-15T07:48:39;2.75;;;0.90;;
35530;SDS011;21637;53.352;-6.356;2024-02-15T07:51:10;0.77;;;0.50;;
35530;SDS011;21637;53.352;-6.356;2024-02-15T07:53:40;2.25;;;0.65;;
35530;SDS011;21637;53.352;-6.356;2024-02-15T07:56:07;1.10;;;0.40;;
35530;SDS011;21637;53.352;-6.356;2024-02-15T07:58:33;1.73;;;0.70;;
35530;SDS011;21637;53.352;-6.356;2024-02-15T08:00:59;0.93;;;0.80;;
35530;SDS011;21637;53.352;-6.356;2024-02-15T08:03:25;1.15;;;0.77;;
35530;SDS011;21637;53.352;-6.356;2024-02-15T08:05:54;3.17;;;0.90;;
35530;SDS011;21637;53.352;-6.356;2024-02-15T08:08:20;2.10;;;0.77;;
35530;SDS011;21637;53.352;-6.356;2024-02-15T08:10:46;2.13;;;0.45;;
35530;SDS011;21637;53.352;-6.356;2024-02-15T08:13:14;2.40;;;0.80;;
35530;SDS011;21637;53.352;-6.356;2024-02-15T08:15:40;1.20;;;0.50;;
35530;SDS011;21637;53.352;-6.356;2024-02-15T08:18:06;2.15;;;0.50;;
35530;SDS011;21637;53.352;-6.356;2024-02-15T08:20:34;1.20;;;0.68;;
35530;SDS011;21637;53.352;-6.356;2024-02-15T08:23:00;0.70;;;0.60;;
35530;SDS011;21637;53.352;-6.356;2024-02-15T08:25:25;0.63;;;0.40;;
35530;SDS011;21637;53.352;-6.356;2024-02-15T08:27:51;1.52;;;0.50;;
35530;SDS011;21637;53.352;-6.356;2024-02-15T08:30:17;0.80;;;0.43;;
35530;SDS011;21637;53.352;-6.356;2024-02-15T08:32:44;0.65;;;0.43;;
35530;SDS011;21637;53.352;-6.356;2024-02-15T08:35:11;4.00;;;0.40;;
35530;SDS011;21637;53.352;-6.356;2024-02-15T08:37:38;1.27;;;0.50;;
35530;SDS011;21637;53.352;-6.356;2024-02-15T08:40:05;1.20;;;0.57;;
35530;SDS011;21637;53.352;-6.356;2024-02-15T08:42:43;3.05;;;0.60;;
35530;SDS011;21637;53.352;-6.356;2024-02-15T08:45:11;1.00;;;0.50;;
35530;SDS011;21637;53.352;-6.356;2024-02-15T08:47:37;3.17;;;0.68;;
35530;SDS011;21637;53.352;-6.356;2024-02-15T08:50:04;1.67;;;0.73;;
35530;SDS011;21637;53.352;-6.356;2024-02-15T08:52:31;1.25;;;0.60;;
35530;SDS011;21637;53.352;-6.356;2024-02-15T08:54:57;1.75;;;0.70;;
35530;SDS011;21637;53.352;-6.356;2024-02-15T08:57:24;1.48;;;1.08;;
35530;SDS011;21637;53.352;-6.356;2024-02-15T08:59:51;2.13;;;0.85;;
35530;SDS011;21637;53.352;-6.356;2024-02-15T09:02:18;1.45;;;1.00;;
35530;SDS011;21637;53.352;-6.356;2024-02-15T09:04:44;3.05;;;1.45;;
35530;SDS011;21637;53.352;-6.356;2024-02-15T09:07:09;3.17;;;1.90;;
35530;SDS011;21637;53.352;-6.356;2024-02-15T09:09:35;2.55;;;1.20;;
35530;SDS011;21637;53.352;-6.356;2024-02-15T09:12:05;3.85;;;1.00;;
35530;SDS011;21637;53.352;-6.356;2024-02-15T09:14:32;1.45;;;0.90;;
35530;SDS011;21637;53.352;-6.356;2024-02-15T09:16:59;3.00;;;0.95;;
35530;SDS011;21637;53.352;-6.356;2024-02-15T09:19:25;2.75;;;1.30;;
35530;SDS011;21637;53.352;-6.356;2024-02-15T09:21:50;20.63;;;6.03;;
35530;SDS011;21637;53.352;-6.356;2024-02-15T09:24:16;5.72;;;1.63;;
35530;SDS011;21637;53.352;-6.356;2024-02-15T09:26:42;1.63;;;0.85;;
35530;SDS011;21637;53.352;-6.356;2024-02-15T09:29:09;2.42;;;0.85;;
35530;SDS011;21637;53.352;-6.356;2024-02-15T09:31:35;1.35;;;0.80;;
35530;SDS011;21637;53.352;-6.356;2024-02-15T09:34:01;2.45;;;1.30;;
35530;SDS011;21637;53.352;-6.356;2024-02-15T09:36:34;4.95;;;0.82;;
35530;SDS011;21637;53.352;-6.356;2024-02-15T09:39:04;4.43;;;1.02;;
35530;SDS011;21637;53.352;-6.356;2024-02-15T09:41:31;2.75;;;1.20;;
35530;SDS011;21637;53.352;-6.356;2024-02-15T09:43:58;1.20;;;0.75;;
35530;SDS011;21637;53.352;-6.356;2024-02-15T09:46:26;2.65;;;0.90;;
35530;SDS011;21637;53.352;-6.356;2024-02-15T09:48:53;1.02;;;0.70;;
35530;SDS011;21637;53.352;-6.356;2024-02-15T09:51:23;5.40;;;0.82;;
35530;SDS011;21637;53.352;-6.356;2024-02-15T09:53:52;3.22;;;0.70;;
35530;SDS011;21637;53.352;-6.356;2024-02-15T09:56:19;1.63;;;0.80;;
35530;SDS011;21637;53.352;-6.356;2024-02-15T09:58:49;2.33;;;0.70;;
35530;SDS011;21637;53.352;-6.356;2024-02-15T10:01:16;3.15;;;0.98;;
35530;SDS011;21637;53.352;-6.356;2024-02-15T10:03:46;0.68;;;0.65;;
35530;SDS011;21637;53.352;-6.356;2024-02-15T10:06:16;1.17;;;0.60;;
35530;SDS011;21637;53.352;-6.356;2024-02-15T10:08:43;1.25;;;0.73;;
35530;SDS011;21637;53.352;-6.356;2024-02-15T10:11:09;2.83;;;1.33;;
35530;SDS011;21637;53.352;-6.356;2024-02-15T10:13:36;0.80;;;0.80;;
35530;SDS011;21637;53.352;-6.356;2024-02-15T10:16:20;1.98;;;0.80;;
35530;SDS011;21637;53.352;-6.356;2024-02-15T10:18:50;1.92;;;0.65;;
35530;SDS011;21637;53.352;-6.356;2024-02-15T10:21:25;2.45;;;1.08;;
35530;SDS011;21637;53.352;-6.356;2024-02-15T10:24:06;4.20;;;1.63;;
35530;SDS011;21637;53.352;-6.356;2024-02-15T10:26:34;0.75;;;0.70;;
35530;SDS011;21637;53.352;-6.356;2024-02-15T10:29:04;0.82;;;0.52;;
35530;SDS011;21637;53.352;-6.356;2024-02-15T10:31:34;2.47;;;0.68;;
35530;SDS011;21637;53.352;-6.356;2024-02-15T10:34:04;2.70;;;0.85;;
35530;SDS011;21637;53.352;-6.356;2024-02-15T10:36:31;2.00;;;0.57;;
35530;SDS011;21637;53.352;-6.356;2024-02-15T10:41:47;1.55;;;1.20;;
35530;SDS011;21637;53.352;-6.356;2024-02-15T10:44:18;3.80;;;0.80;;
35530;SDS011;21637;53.352;-6.356;2024-02-15T10:46:54;2.20;;;0.57;;
35530;SDS011;21637;53.352;-6.356;2024-02-15T10:49:20;1.30;;;0.47;;
35530;SDS011;21637;53.352;-6.356;2024-02-15T10:51:49;2.15;;;0.70;;
35530;SDS011;21637;53.352;-6.356;2024-02-15T10:54:19;1.88;;;0.40;;
35530;SDS011;21637;53.352;-6.356;2024-02-15T10:57:00;1.67;;;0.82;;
35530;SDS011;21637;53.352;-6.356;2024-02-15T10:59:31;1.88;;;0.52;;
35530;SDS011;21637;53.352;-6.356;2024-02-15T11:02:02;2.05;;;0.55;;
35530;SDS011;21637;53.352;-6.356;2024-02-15T11:04:55;0.65;;;0.40;;
35530;SDS011;21637;53.352;-6.356;2024-02-15T11:07:28;2.17;;;0.65;;
35530;SDS011;21637;53.352;-6.356;2024-02-15T11:09:56;1.25;;;0.52;;
35530;SDS011;21637;53.352;-6.356;2024-02-15T11:12:23;3.28;;;0.50;;
35530;SDS011;21637;53.352;-6.356;2024-02-15T11:14:53;2.30;;;0.60;;
35530;SDS011;21637;53.352;-6.356;2024-02-15T11:20:08;2.25;;;0.70;;
35530;SDS011;21637;53.352;-6.356;2024-02-15T11:22:37;1.20;;;0.80;;
35530;SDS011;21637;53.352;-6.356;2024-02-15T11:25:04;0.95;;;0.75;;
35530;SDS011;21637;53.352;-6.356;2024-02-15T11:27:34;0.88;;;0.60;;
35530;SDS011;21637;53.352;-6.356;2024-02-15T11:30:02;1.10;;;0.63;;
35530;SDS011;21637;53.352;-6.356;2024-02-15T11:40:22;1.17;;;0.68;;
35530;SDS011;21637;53.352;-6.356;2024-02-15T11:42:53;3.45;;;1.10;;
35530;SDS011;21637;53.352;-6.356;2024-02-15T11:45:19;1.30;;;1.10;;
35530;SDS011;21637;53.352;-6.356;2024-02-15T11:47:49;1.35;;;0.90;;
35530;SDS011;21637;53.352;-6.356;2024-02-15T11:50:16;2.22;;;1.40;;
35530;SDS011;21637;53.352;-6.356;2024-02-15T11:52:45;1.80;;;1.55;;
35530;SDS011;21637;53.352;-6.356;2024-02-15T11:55:18;2.33;;;2.10;;
35530;SDS011;21637;53.352;-6.356;2024-02-15T12:00:27;2.75;;;2.00;;
35530;SDS011;21637;53.352;-6.356;2024-02-15T12:03:13;3.25;;;1.65;;
35530;SDS011;21637;53.352;-6.356;2024-02-15T12:05:58;1.95;;;1.77;;
35530;SDS011;21637;53.352;-6.356;2024-02-15T12:08:46;4.93;;;1.90;;
35530;SDS011;21637;53.352;-6.356;2024-02-15T12:11:31;2.75;;;2.00;;
35530;SDS011;21637;53.352;-6.356;2024-02-15T12:14:16;3.60;;;2.13;;
35530;SDS011;21637;53.352;-6.356;2024-02-15T12:19:48;2.28;;;2.08;;
35530;SDS011;21637;53.352;-6.356;2024-02-15T12:22:20;2.13;;;1.98;;
35530;SDS011;21637;53.352;-6.356;2024-02-15T12:24:55;3.17;;;1.70;;
35530;SDS011;21637;53.352;-6.356;2024-02-15T12:27:25;1.67;;;1.58;;
35530;SDS011;21637;53.352;-6.356;2024-02-15T12:30:01;1.70;;;1.60;;
35530;SDS011;21637;53.352;-6.356;2024-02-15T12:32:30;1.90;;;1.50;;
35530;SDS011;21637;53.352;-6.356;2024-02-15T12:35:15;2.17;;;1.40;;
35530;SDS011;21637;53.352;-6.356;2024-02-15T12:37:44;2.35;;;1.40;;
35530;SDS011;21637;53.352;-6.356;2024-02-15T12:40:11;1.27;;;1.10;;
35530;SDS011;21637;53.352;-6.356;2024-02-15T12:42:44;3.25;;;1.52;;
35530;SDS011;21637;53.352;-6.356;2024-02-15T12:45:18;0.98;;;0.88;;
35530;SDS011;21637;53.352;-6.356;2024-02-15T12:47:52;1.88;;;0.88;;
35530;SDS011;21637;53.352;-6.356;2024-02-15T12:50:23;1.83;;;1.00;;
35530;SDS011;21637;53.352;-6.356;2024-02-15T12:52:59;1.08;;;0.90;;
35530;SDS011;21637;53.352;-6.356;2024-02-15T12:55:28;3.30;;;1.08;;
35530;SDS011;21637;53.352;-6.356;2024-02-15T12:57:56;1.42;;;0.93;;
35530;SDS011;21637;53.352;-6.356;2024-02-15T13:00:26;1.85;;;0.82;;
35530;SDS011;21637;53.352;-6.356;2024-02-15T13:03:03;2.33;;;0.70;;
35530;SDS011;21637;53.352;-6.356;2024-02-15T13:05:30;1.23;;;1.05;;
35530;SDS011;21637;53.352;-6.356;2024-02-15T13:07:57;1.15;;;1.02;;
35530;SDS011;21637;53.352;-6.356;2024-02-15T13:10:23;1.95;;;1.05;;
35530;SDS011;21637;53.352;-6.356;2024-02-15T13:12:51;2.40;;;1.25;;
35530;SDS011;21637;53.352;-6.356;2024-02-15T13:15:18;1.90;;;1.70;;
35530;SDS011;21637;53.352;-6.356;2024-02-15T13:17:46;2.10;;;1.90;;
35530;SDS011;21637;53.352;-6.356;2024-02-15T13:20:19;1.83;;;1.70;;
35530;SDS011;21637;53.352;-6.356;2024-02-15T13:22:52;2.17;;;1.90;;
35530;SDS011;21637;53.352;-6.356;2024-02-15T13:25:18;2.60;;;2.40;;
35530;SDS011;21637;53.352;-6.356;2024-02-15T13:27:46;1.90;;;1.80;;
35530;SDS011;21637;53.352;-6.356;2024-02-15T13:30:12;2.65;;;1.75;;
35530;SDS011;21637;53.352;-6.356;2024-02-15T13:32:39;1.90;;;1.80;;
35530;SDS011;21637;53.352;-6.356;2024-02-15T13:35:08;4.75;;;1.63;;
35530;SDS011;21637;53.352;-6.356;2024-02-15T13:37:41;3.60;;;1.63;;
35530;SDS011;21637;53.352;-6.356;2024-02-15T13:40:13;1.48;;;1.30;;
35530;SDS011;21637;53.352;-6.356;2024-02-15T13:42:45;3.25;;;1.30;;
35530;SDS011;21637;53.352;-6.356;2024-02-15T13:45:17;2.70;;;1.20;;
35530;SDS011;21637;53.352;-6.356;2024-02-15T13:47:50;1.33;;;1.23;;
35530;SDS011;21637;53.352;-6.356;2024-02-15T13:50:18;3.83;;;1.40;;
35530;SDS011;21637;53.352;-6.356;2024-02-15T13:52:44;3.17;;;1.70;;
35530;SDS011;21637;53.352;-6.356;2024-02-15T13:55:11;2.60;;;1.77;;
35530;SDS011;21637;53.352;-6.356;2024-02-15T13:57:44;3.03;;;1.60;;
35530;SDS011;21637;53.352;-6.356;2024-02-15T14:00:14;1.77;;;1.48;;
35530;SDS011;21637;53.352;-6.356;2024-02-15T14:02:53;2.42;;;1.42;;
35530;SDS011;21637;53.352;-6.356;2024-02-15T14:07:49;4.82;;;1.20;;
35530;SDS011;21637;53.352;-6.356;2024-02-15T14:10:17;3.75;;;1.55;;
35530;SDS011;21637;53.352;-6.356;2024-02-15T14:12:48;5.22;;;1.20;;
35530;SDS011;21637;53.352;-6.356;2024-02-15T14:15:17;5.05;;;1.60;;
35530;SDS011;21637;53.352;-6.356;2024-02-15T14:17:44;3.92;;;1.77;;
35530;SDS011;21637;53.352;-6.356;2024-02-15T14:20:10;3.45;;;1.50;;
35530;SDS011;21637;53.352;-6.356;2024-02-15T14:22:44;3.90;;;1.80;;
35530;SDS011;21637;53.352;-6.356;2024-02-15T14:25:10;4.40;;;1.30;;
35530;SDS011;21637;53.352;-6.356;2024-02-15T14:27:39;2.67;;;1.20;;
35530;SDS011;21637;53.352;-6.356;2024-02-15T14:30:05;4.28;;;1.50;;
35530;SDS011;21637;53.352;-6.356;2024-02-15T14:32:50;5.93;;;1.70;;
35530;SDS011;21637;53.352;-6.356;2024-02-15T14:35:25;4.32;;;1.65;;
35530;SDS011;21637;53.352;-6.356;2024-02-15T14:37:52;4.13;;;1.55;;
35530;SDS011;21637;53.352;-6.356;2024-02-15T14:40:18;6.13;;;1.70;;
35530;SDS011;21637;53.352;-6.356;2024-02-15T14:42:44;6.10;;;1.80;;
35530;SDS011;21637;53.352;-6.356;2024-02-15T14:45:10;3.80;;;1.60;;
35530;SDS011;21637;53.352;-6.356;2024-02-15T14:47:37;3.00;;;1.88;;
35530;SDS011;21637;53.352;-6.356;2024-02-15T14:50:03;3.47;;;1.70;;
35530;SDS011;21637;53.352;-6.356;2024-02-15T14:52:33;4.40;;;1.38;;
35530;SDS011;21637;53.352;-6.356;2024-02-15T14:55:03;4.05;;;1.58;;
35530;SDS011;21637;53.352;-6.356;2024-02-15T14:57:30;3.92;;;1.70;;
35530;SDS011;21637;53.352;-6.356;2024-02-15T14:59:58;3.83;;;1.48;;
35530;SDS011;21637;53.352;-6.356;2024-02-15T15:02:24;4.47;;;1.95;;